Time;durP1;ratioP1;P1;durP2;ratioP2;P2;SDS_P1;SDS_P2;PMS_P1;PMS_P2;Temp;Humidity;BMP_temperature;BMP_pressure;BME280_temperature;BME280_humidity;BME280_pressure;Samples;Min_cycle;Max_cycle;Signal;HPM_P1;HPM_P2
2021/09/25 00:00:49;;;;;;;0.80;0.70;;;26.80;99.90;;;;;;4141584;28;20116;-66
2021/09/25 00:02:55;;;;;;;1.58;0.80;;;26.70;99.90;;;;;;4141881;28;20149;-66
2021/09/25 00:05:00;;;;;;;2.20;0.63;;;26.70;99.90;;;;;;4142274;28;20344;-66
2021/09/25 00:07:05;;;;;;;1.58;0.70;;;26.70;99.90;;;;;;4143205;28;20041;-67
2021/09/25 00:09:10;;;;;;;2.25;0.80;;;26.80;99.90;;;;;;4145924;28;20498;-66
2021/09/25 00:11:15;;;;;;;1.05;0.63;;;26.80;99.90;;;;;;4146902;28;20038;-66
2021/09/25 00:13:19;;;;;;;0.77;0.60;;;26.80;99.90;;;;;;4144593;28;20038;-66
2021/09/25 00:15:24;;;;;;;1.60;0.90;;;26.80;99.90;;;;;;4148301;28;20046;-66
2021/09/25 00:17:29;;;;;;;3.15;0.80;;;26.90;99.90;;;;;;4139425;28;20060;-66
2021/09/25 00:19:34;;;;;;;4.88;0.70;;;26.90;99.90;;;;;;4145598;28;20538;-66
2021/09/25 00:21:40;;;;;;;0.85;0.60;;;26.90;99.90;;;;;;4146934;28;20068;-66
2021/09/25 00:23:44;;;;;;;1.48;0.75;;;26.90;99.90;;;;;;4143029;28;20480;-66
2021/09/25 00:25:48;;;;;;;1.90;0.77;;;26.90;99.90;;;;;;4140074;28;20132;-66
2021/09/25 00:27:53;;;;;;;2.63;0.90;;;26.90;99.90;;;;;;4139318;28;20038;-66
2021/09/25 00:29:58;;;;;;;1.60;0.70;;;27.00;99.90;;;;;;4139856;28;20433;-66
2021/09/25 00:32:03;;;;;;;1.00;0.70;;;27.00;99.90;;;;;;4141412;28;20436;-65
2021/09/25 00:34:08;;;;;;;1.00;0.70;;;27.00;99.90;;;;;;4148498;28;20432;-67
2021/09/25 00:36:12;;;;;;;2.30;0.77;;;27.00;99.90;;;;;;4148785;28;20558;-66
2021/09/25 00:38:17;;;;;;;1.33;0.70;;;27.00;99.90;;;;;;4135132;28;20050;-66
2021/09/25 00:40:22;;;;;;;1.67;1.00;;;27.00;99.90;;;;;;4132470;28;20409;-67
2021/09/25 00:42:26;;;;;;;3.70;1.13;;;27.10;99.90;;;;;;4140775;28;20054;-66
2021/09/25 00:44:31;;;;;;;3.08;1.00;;;27.10;99.90;;;;;;4145959;28;20438;-65
2021/09/25 00:46:36;;;;;;;1.50;0.80;;;27.00;99.90;;;;;;4148055;28;20037;-66
2021/09/25 00:48:41;;;;;;;1.55;0.90;;;27.10;99.90;;;;;;4147843;28;20042;-66
2021/09/25 00:50:46;;;;;;;3.13;1.25;;;27.10;99.90;;;;;;4147557;28;20042;-67
2021/09/25 00:52:50;;;;;;;3.08;1.10;;;27.10;99.90;;;;;;4147720;28;20088;-65
2021/09/25 00:54:55;;;;;;;2.45;0.80;;;27.10;99.90;;;;;;4144356;28;20315;-67
2021/09/25 00:56:59;;;;;;;5.53;0.90;;;27.00;99.90;;;;;;4153010;28;20048;-66
2021/09/25 00:59:04;;;;;;;1.13;0.73;;;27.00;99.90;;;;;;4153659;28;20137;-67
2021/09/25 01:01:08;;;;;;;1.52;0.75;;;27.10;99.90;;;;;;4152960;28;20061;-66
2021/09/25 01:03:13;;;;;;;1.27;0.90;;;27.20;99.90;;;;;;4155378;28;20046;-66
2021/09/25 01:05:21;;;;;;;3.58;0.80;;;27.10;99.90;;;;;;4165728;28;20111;-66
2021/09/25 01:07:26;;;;;;;1.42;1.10;;;27.20;99.90;;;;;;4164881;28;20061;-66
2021/09/25 01:09:33;;;;;;;2.05;0.82;;;27.20;99.90;;;;;;4162591;28;20455;-67
2021/09/25 01:11:41;;;;;;;1.60;0.90;;;27.20;99.90;;;;;;4156581;28;20100;-66
2021/09/25 01:13:45;;;;;;;1.13;0.70;;;27.20;99.90;;;;;;4144918;28;20050;-67
2021/09/25 01:15:52;;;;;;;1.17;0.77;;;27.20;99.90;;;;;;4161091;28;20053;-64
2021/09/25 01:17:57;;;;;;;2.08;1.00;;;27.30;99.90;;;;;;4160860;28;20045;-63
2021/09/25 01:20:03;;;;;;;41.25;4.05;;;27.30;99.90;;;;;;4160520;28;20049;-64
2021/09/25 01:22:07;;;;;;;15.98;1.63;;;27.20;99.90;;;;;;4160229;28;20500;-64
2021/09/25 01:24:14;;;;;;;86.85;6.68;;;27.20;99.90;;;;;;4160625;28;20103;-63
2021/09/25 01:26:20;;;;;;;24.35;2.63;;;27.20;99.90;;;;;;4157665;28;20061;-64
2021/09/25 01:28:24;;;;;;;16.50;2.45;;;27.20;99.90;;;;;;4129165;28;20046;-64
2021/09/25 01:30:31;;;;;;;9.77;1.33;;;27.20;99.90;;;;;;4146914;28;20041;-64
2021/09/25 01:32:36;;;;;;;6.57;1.10;;;27.20;99.90;;;;;;4145679;28;20057;-64
2021/09/25 01:34:40;;;;;;;1.58;0.90;;;27.20;99.90;;;;;;4145243;28;20117;-64
2021/09/25 01:36:45;;;;;;;3.50;0.90;;;27.10;99.90;;;;;;4145357;28;20092;-66
2021/09/25 01:38:51;;;;;;;1.85;0.90;;;27.10;99.90;;;;;;4144762;28;20080;-65
2021/09/25 01:40:55;;;;;;;5.03;0.90;;;27.20;99.90;;;;;;4146260;28;20050;-65
2021/09/25 01:43:00;;;;;;;2.05;0.95;;;27.20;99.90;;;;;;4142502;28;20092;-65
2021/09/25 01:45:05;;;;;;;1.30;1.10;;;27.20;99.90;;;;;;4146817;28;20488;-65
2021/09/25 01:47:10;;;;;;;1.35;0.95;;;27.30;99.90;;;;;;4145243;28;20061;-65
2021/09/25 01:49:23;;;;;;;1.92;1.15;;;27.20;99.90;;;;;;4146318;28;20042;-66
2021/09/25 01:51:27;;;;;;;2.10;0.95;;;27.20;99.90;;;;;;4145671;28;20486;-65
2021/09/25 01:53:33;;;;;;;2.13;1.08;;;27.20;99.90;;;;;;4146325;28;20038;-66
2021/09/25 01:55:38;;;;;;;0.90;0.68;;;27.20;99.90;;;;;;4145527;28;20360;-66
2021/09/25 01:57:43;;;;;;;1.00;0.90;;;27.20;99.90;;;;;;4144144;28;20125;-66
2021/09/25 01:59:48;;;;;;;1.80;0.90;;;27.30;99.90;;;;;;4141432;28;20116;-66
2021/09/25 02:01:52;;;;;;;1.35;1.10;;;27.30;99.90;;;;;;4143964;28;20054;-65
2021/09/25 02:03:58;;;;;;;1.42;0.85;;;27.30;99.90;;;;;;4142866;28;20050;-64
2021/09/25 02:06:05;;;;;;;1.05;0.90;;;27.40;99.90;;;;;;4143798;28;20045;-65
2021/09/25 02:08:10;;;;;;;2.35;1.00;;;27.40;99.90;;;;;;4141777;28;20509;-64
2021/09/25 02:10:15;;;;;;;1.48;1.00;;;27.40;99.90;;;;;;4143572;28;20056;-64
2021/09/25 02:12:20;;;;;;;2.55;1.10;;;27.50;99.90;;;;;;4139811;28;20050;-64
2021/09/25 02:14:25;;;;;;;1.13;1.00;;;27.50;99.90;;;;;;4142163;28;20478;-65
2021/09/25 02:16:30;;;;;;;3.22;1.13;;;27.40;99.90;;;;;;4143299;28;20049;-65
2021/09/25 02:18:35;;;;;;;2.08;1.15;;;27.40;99.90;;;;;;4143848;28;20385;-65
2021/09/25 02:20:40;;;;;;;1.17;1.08;;;27.40;99.90;;;;;;4143742;28;20046;-64
2021/09/25 02:22:46;;;;;;;2.60;1.17;;;27.40;99.90;;;;;;4143656;28;20060;-67
2021/09/25 02:24:50;;;;;;;1.80;1.00;;;27.40;99.90;;;;;;4143520;28;20062;-65
2021/09/25 02:26:58;;;;;;;1.63;1.02;;;27.40;99.90;;;;;;4140594;28;20528;-65
2021/09/25 02:29:05;;;;;;;1.25;0.90;;;27.50;99.90;;;;;;4143175;28;20050;-63
2021/09/25 02:31:10;;;;;;;3.10;1.27;;;27.60;99.90;;;;;;4144078;28;20496;-64
2021/09/25 02:33:14;;;;;;;1.33;0.85;;;27.60;99.90;;;;;;4144042;28;20512;-64
2021/09/25 02:35:19;;;;;;;1.17;1.08;;;27.60;99.90;;;;;;4143869;28;20096;-64
2021/09/25 02:37:24;;;;;;;1.55;0.90;;;27.70;99.90;;;;;;4137677;28;20097;-64
2021/09/25 02:39:29;;;;;;;1.88;1.08;;;27.70;99.90;;;;;;4138806;28;20412;-64
2021/09/25 02:41:34;;;;;;;1.13;0.98;;;27.90;99.90;;;;;;4127798;28;20065;-64
2021/09/25 02:43:38;;;;;;;1.58;0.95;;;27.90;99.90;;;;;;4127632;28;20046;-66
2021/09/25 02:45:43;;;;;;;1.00;0.90;;;27.90;99.90;;;;;;4138949;28;20093;-64
2021/09/25 02:47:47;;;;;;;2.55;0.90;;;27.90;99.90;;;;;;4143559;28;20049;-64
2021/09/25 02:49:52;;;;;;;1.30;0.90;;;27.90;99.90;;;;;;4142610;28;20046;-64
2021/09/25 02:51:57;;;;;;;1.05;0.90;;;28.00;99.90;;;;;;4146140;28;20077;-65
2021/09/25 02:54:01;;;;;;;1.15;0.80;;;28.00;99.90;;;;;;4146579;28;20050;-64
2021/09/25 02:56:06;;;;;;;1.50;0.80;;;28.00;99.90;;;;;;4138263;28;20042;-64
2021/09/25 02:58:11;;;;;;;4.45;1.10;;;28.00;99.90;;;;;;4145197;28;20125;-64
2021/09/25 03:00:18;;;;;;;1.70;1.10;;;27.90;99.90;;;;;;4145886;28;20049;-65
2021/09/25 03:02:22;;;;;;;2.78;0.80;;;27.90;99.90;;;;;;4145479;28;20057;-65
2021/09/25 03:04:27;;;;;;;0.98;0.77;;;27.80;99.90;;;;;;4146458;28;20050;-65
2021/09/25 03:06:31;;;;;;;2.08;0.70;;;27.80;99.90;;;;;;4145772;28;20425;-66
2021/09/25 03:08:36;;;;;;;1.55;0.80;;;27.80;99.90;;;;;;4140914;28;20121;-66
2021/09/25 03:10:41;;;;;;;0.77;0.70;;;27.80;99.90;;;;;;4145420;28;20046;-65
2021/09/25 03:12:45;;;;;;;1.95;0.80;;;27.90;99.90;;;;;;4144568;28;20046;-65
2021/09/25 03:14:51;;;;;;;1.00;0.70;;;27.90;99.90;;;;;;4138130;28;20497;-65
2021/09/25 03:16:55;;;;;;;1.50;0.80;;;27.90;99.90;;;;;;4142424;28;20137;-65
2021/09/25 03:19:01;;;;;;;2.42;0.57;;;28.00;99.90;;;;;;4145729;28;20042;-66
2021/09/25 03:21:05;;;;;;;1.13;0.73;;;28.10;99.90;;;;;;4145356;28;20046;-66
2021/09/25 03:23:10;;;;;;;3.38;0.85;;;28.00;99.90;;;;;;4146289;28;20042;-65
2021/09/25 03:25:15;;;;;;;1.65;0.70;;;28.10;99.90;;;;;;4132773;28;20043;-65
2021/09/25 03:27:19;;;;;;;4.32;0.73;;;28.00;99.90;;;;;;4139533;28;20073;-65
2021/09/25 03:29:24;;;;;;;1.23;0.73;;;28.00;99.90;;;;;;4146249;28;20072;-65
2021/09/25 03:31:29;;;;;;;1.23;0.60;;;28.00;99.90;;;;;;4146497;28;20404;-65
2021/09/25 03:33:33;;;;;;;0.50;0.50;;;27.90;99.90;;;;;;4146290;28;20073;-64
2021/09/25 03:35:42;;;;;;;1.15;0.75;;;27.90;99.90;;;;;;4133833;28;20038;-65
2021/09/25 03:37:47;;;;;;;0.98;0.60;;;27.90;99.90;;;;;;4144828;28;20054;-64
2021/09/25 03:39:52;;;;;;;1.00;0.70;;;27.90;99.90;;;;;;4129940;28;20039;-65
2021/09/25 03:41:56;;;;;;;0.68;0.68;;;27.90;99.90;;;;;;4134007;28;20145;-66
2021/09/25 03:44:01;;;;;;;2.45;0.88;;;27.90;99.90;;;;;;4146746;28;20574;-64
2021/09/25 03:46:05;;;;;;;1.90;0.85;;;27.90;99.90;;;;;;4149577;28;20574;-65
2021/09/25 03:48:10;;;;;;;1.75;0.82;;;28.00;99.90;;;;;;4148629;28;20057;-65
2021/09/25 03:50:14;;;;;;;1.92;0.77;;;28.10;99.90;;;;;;4149449;28;20057;-65
2021/09/25 03:52:19;;;;;;;1.10;0.80;;;28.10;99.90;;;;;;4141447;28;20129;-65
2021/09/25 03:54:24;;;;;;;1.63;0.80;;;28.10;99.90;;;;;;4133247;28;20093;-64
2021/09/25 03:56:28;;;;;;;0.90;0.80;;;28.10;99.90;;;;;;4133237;28;20048;-64
2021/09/25 03:58:33;;;;;;;1.45;0.60;;;28.10;99.90;;;;;;4147410;28;20500;-64
2021/09/25 04:00:42;;;;;;;1.35;0.80;;;28.00;99.90;;;;;;4148978;28;20482;-65
2021/09/25 04:02:50;;;;;;;1.52;0.80;;;28.00;99.90;;;;;;4148986;28;20084;-65
2021/09/25 04:04:55;;;;;;;1.05;0.70;;;28.00;99.90;;;;;;4147298;28;20060;-65
2021/09/25 04:06:59;;;;;;;1.13;0.90;;;28.00;99.90;;;;;;4134470;28;20042;-65
2021/09/25 04:09:06;;;;;;;0.60;0.60;;;28.10;99.90;;;;;;4148905;28;20077;-64
2021/09/25 04:11:10;;;;;;;0.70;0.65;;;28.20;99.90;;;;;;4137945;28;20413;-65
2021/09/25 04:13:15;;;;;;;1.35;0.80;;;28.30;99.90;;;;;;4145706;28;20050;-65
2021/09/25 04:15:20;;;;;;;1.17;0.88;;;28.40;99.90;;;;;;4144983;28;20096;-65
2021/09/25 04:17:24;;;;;;;0.80;0.80;;;28.40;99.90;;;;;;4146460;28;20049;-64
2021/09/25 04:19:29;;;;;;;1.92;0.73;;;28.50;99.90;;;;;;4145874;28;20058;-65
2021/09/25 04:21:33;;;;;;;0.90;0.73;;;28.50;99.90;;;;;;4133025;28;20158;-64
2021/09/25 04:23:37;;;;;;;2.33;0.70;;;28.50;99.90;;;;;;4129952;28;20050;-64
2021/09/25 04:25:41;;;;;;;1.10;0.70;;;28.50;99.90;;;;;;4135681;28;20092;-65
2021/09/25 04:27:49;;;;;;;0.95;0.60;;;28.40;99.90;;;;;;4130545;28;20060;-65
2021/09/25 04:29:54;;;;;;;0.65;0.63;;;28.40;99.90;;;;;;4128683;28;20045;-65
2021/09/25 04:31:59;;;;;;;0.82;0.70;;;28.40;99.90;;;;;;4124607;28;20587;-65
2021/09/25 04:34:05;;;;;;;0.75;0.65;;;28.40;99.90;;;;;;4129655;28;20402;-65
2021/09/25 04:36:09;;;;;;;1.23;0.73;;;28.40;99.90;;;;;;4147223;28;20492;-65
2021/09/25 04:38:14;;;;;;;1.13;0.70;;;28.40;99.90;;;;;;4146206;28;20072;-65
2021/09/25 04:40:19;;;;;;;0.75;0.75;;;28.40;99.90;;;;;;4147197;28;20042;-65
2021/09/25 04:42:23;;;;;;;1.25;0.80;;;28.40;99.90;;;;;;4137629;28;20038;-66
2021/09/25 04:44:27;;;;;;;1.45;0.80;;;28.50;99.90;;;;;;4146803;28;20255;-65
2021/09/25 04:46:32;;;;;;;1.85;0.82;;;28.50;99.90;;;;;;4147563;28;20116;-65
2021/09/25 04:48:36;;;;;;;1.08;0.70;;;28.50;99.90;;;;;;4148660;28;20053;-64
2021/09/25 04:50:41;;;;;;;1.27;0.73;;;28.40;99.90;;;;;;4132328;28;20039;-65
2021/09/25 04:52:45;;;;;;;1.00;0.57;;;28.40;99.90;;;;;;4115354;28;20162;-65
2021/09/25 04:54:50;;;;;;;1.23;0.52;;;28.30;99.90;;;;;;4140340;28;20073;-65
2021/09/25 04:56:54;;;;;;;3.20;1.15;;;28.30;99.90;;;;;;4138202;28;20093;-65
2021/09/25 04:58:59;;;;;;;0.47;0.47;;;28.20;99.90;;;;;;4133786;28;20109;-65
2021/09/25 05:01:04;;;;;;;1.02;0.60;;;28.10;99.90;;;;;;4147548;28;20080;-65
2021/09/25 05:03:09;;;;;;;0.50;0.30;;;28.10;99.90;;;;;;4148297;28;20062;-65
2021/09/25 05:05:14;;;;;;;0.60;0.43;;;28.10;99.90;;;;;;4148102;28;20435;-65
2021/09/25 05:07:19;;;;;;;0.93;0.50;;;28.10;99.90;;;;;;4147891;28;20073;-65
2021/09/25 05:09:24;;;;;;;1.00;0.70;;;28.20;99.90;;;;;;4147996;28;20041;-65
2021/09/25 05:11:28;;;;;;;0.88;0.60;;;28.30;99.90;;;;;;4145520;28;20065;-65
2021/09/25 05:13:33;;;;;;;0.63;0.55;;;28.40;99.90;;;;;;4146854;28;20042;-65
2021/09/25 05:15:38;;;;;;;0.90;0.60;;;28.30;99.90;;;;;;4148170;28;20058;-65
2021/09/25 05:17:42;;;;;;;3.40;0.40;;;28.20;99.90;;;;;;4147934;28;20088;-65
2021/09/25 05:19:48;;;;;;;0.47;0.47;;;28.10;99.90;;;;;;4147939;28;20057;-65
2021/09/25 05:21:52;;;;;;;0.95;0.60;;;28.20;99.90;;;;;;4145356;28;20214;-65
2021/09/25 05:23:57;;;;;;;0.82;0.45;;;28.30;99.90;;;;;;4148160;28;20053;-65
2021/09/25 05:26:01;;;;;;;0.30;0.20;;;28.40;99.90;;;;;;4146471;28;20069;-65
2021/09/25 05:28:06;;;;;;;0.32;0.30;;;28.50;99.90;;;;;;4131752;28;20058;-65
2021/09/25 05:30:11;;;;;;;0.30;0.20;;;28.60;99.90;;;;;;4130960;28;20050;-65
2021/09/25 05:32:16;;;;;;;0.77;0.30;;;28.60;99.90;;;;;;4144781;28;20137;-65
2021/09/25 05:34:21;;;;;;;2.53;0.22;;;28.60;99.90;;;;;;4138688;28;20042;-64
2021/09/25 05:36:26;;;;;;;0.73;0.30;;;28.70;99.90;;;;;;4147976;28;20092;-64
2021/09/25 05:38:31;;;;;;;1.80;0.20;;;28.80;99.90;;;;;;4148031;28;20054;-64
2021/09/25 05:40:36;;;;;;;2.22;0.45;;;28.90;99.90;;;;;;4137300;28;20056;-64
2021/09/25 05:42:41;;;;;;;0.68;0.30;;;28.90;99.90;;;;;;4133582;28;20497;-64
2021/09/25 05:44:46;;;;;;;1.65;0.38;;;28.80;99.90;;;;;;4146947;28;20092;-64
2021/09/25 05:46:51;;;;;;;0.63;0.30;;;28.70;99.90;;;;;;4148008;28;20077;-65
2021/09/25 05:48:56;;;;;;;0.55;0.20;;;28.60;99.90;;;;;;4138583;28;20093;-65
2021/09/25 05:51:03;;;;;;;0.75;0.30;;;28.60;99.90;;;;;;4131814;28;20178;-66
2021/09/25 05:53:07;;;;;;;3.15;0.38;;;28.60;99.90;;;;;;4141880;28;20042;-66
2021/09/25 05:55:12;;;;;;;1.70;0.40;;;28.60;99.90;;;;;;4144546;28;20444;-65
2021/09/25 05:57:16;;;;;;;0.22;0.20;;;28.40;99.90;;;;;;4144065;28;20049;-64
2021/09/25 05:59:21;;;;;;;0.70;0.30;;;28.20;99.90;;;;;;4145823;28;20045;-65
2021/09/25 06:01:26;;;;;;;0.88;0.40;;;28.20;99.90;;;;;;4145775;28;20520;-64
2021/09/25 06:03:31;;;;;;;1.55;0.22;;;28.10;99.90;;;;;;4130762;28;20050;-64
2021/09/25 06:05:36;;;;;;;2.25;0.50;;;28.00;99.90;;;;;;4140205;28;20465;-65
2021/09/25 06:07:40;;;;;;;1.80;0.52;;;28.00;99.90;;;;;;4142618;28;20066;-65
2021/09/25 06:09:44;;;;;;;2.33;1.30;;;28.10;99.90;;;;;;4144748;28;20138;-65
2021/09/25 06:11:51;;;;;;;5.55;2.00;;;28.20;99.90;;;;;;4137823;28;20464;-65
2021/09/25 06:13:55;;;;;;;3.35;1.75;;;28.20;99.90;;;;;;4139295;28;20056;-65
2021/09/25 06:16:00;;;;;;;3.50;1.48;;;28.20;99.90;;;;;;4143459;28;20082;-65
2021/09/25 06:18:07;;;;;;;1.85;0.90;;;28.30;99.90;;;;;;4144475;28;20456;-65
2021/09/25 06:20:11;;;;;;;2.30;0.77;;;28.30;99.90;;;;;;4144182;28;20049;-66
2021/09/25 06:22:16;;;;;;;1.88;0.90;;;28.30;99.90;;;;;;4143468;28;20050;-65
2021/09/25 06:24:21;;;;;;;1.40;0.80;;;28.30;99.90;;;;;;4143710;28;20157;-66
2021/09/25 06:26:25;;;;;;;1.38;0.90;;;28.30;99.90;;;;;;4140745;28;20054;-65
2021/09/25 06:28:30;;;;;;;0.93;0.73;;;28.30;99.90;;;;;;4140240;28;20165;-65
2021/09/25 06:30:40;;;;;;;1.20;0.82;;;28.20;99.90;;;;;;4144325;28;20033;-65
2021/09/25 06:32:46;;;;;;;1.33;1.00;;;28.20;99.90;;;;;;4141271;28;20567;-65
2021/09/25 06:34:52;;;;;;;1.17;0.90;;;28.10;99.90;;;;;;4142564;28;20528;-65
2021/09/25 06:36:56;;;;;;;1.23;0.90;;;28.10;99.90;;;;;;4142043;28;20050;-65
2021/09/25 06:39:01;;;;;;;2.00;1.13;;;28.20;99.90;;;;;;4141302;28;20061;-65
2021/09/25 06:41:06;;;;;;;1.40;0.98;;;28.20;99.90;;;;;;4156839;28;20435;-64
2021/09/25 06:43:11;;;;;;;2.10;1.00;;;28.20;99.90;;;;;;4144808;28;20042;-65
2021/09/25 06:45:17;;;;;;;1.52;1.02;;;28.20;99.90;;;;;;4145362;28;20124;-64
2021/09/25 06:47:22;;;;;;;1.15;1.00;;;28.20;99.90;;;;;;4145269;28;20444;-64
2021/09/25 06:49:26;;;;;;;2.15;1.02;;;28.10;99.90;;;;;;4144753;28;20539;-65
2021/09/25 06:51:31;;;;;;;1.27;1.00;;;28.00;99.90;;;;;;4145970;28;20041;-65
2021/09/25 06:53:35;;;;;;;1.48;1.00;;;28.00;99.90;;;;;;4144930;28;20042;-65
2021/09/25 06:55:40;;;;;;;1.60;1.00;;;28.00;99.90;;;;;;4145548;28;20483;-64
2021/09/25 06:57:44;;;;;;;2.00;0.90;;;28.00;99.90;;;;;;4144051;28;20129;-64
2021/09/25 06:59:49;;;;;;;0.93;0.85;;;28.00;99.90;;;;;;4146217;28;20076;-64
2021/09/25 07:01:53;;;;;;;1.58;0.90;;;28.10;99.90;;;;;;4145524;28;20504;-64
2021/09/25 07:03:58;;;;;;;1.55;0.98;;;28.00;99.90;;;;;;4145009;28;20440;-64
2021/09/25 07:06:04;;;;;;;2.95;0.80;;;28.00;99.90;;;;;;4144963;28;20042;-64
2021/09/25 07:08:08;;;;;;;2.20;0.90;;;28.00;99.90;;;;;;4146405;28;20140;-66
2021/09/25 07:10:14;;;;;;;1.23;0.77;;;28.10;99.90;;;;;;4145532;28;20504;-66
2021/09/25 07:12:19;;;;;;;0.90;0.60;;;28.10;99.90;;;;;;4142838;28;20412;-66
2021/09/25 07:14:23;;;;;;;1.35;0.95;;;28.00;99.90;;;;;;4145168;28;20127;-66
2021/09/25 07:16:28;;;;;;;1.73;0.70;;;28.10;99.90;;;;;;4146289;28;20038;-66
2021/09/25 07:18:33;;;;;;;0.75;0.60;;;28.00;99.90;;;;;;4137618;28;20443;-66
2021/09/25 07:20:37;;;;;;;1.17;0.77;;;28.10;99.90;;;;;;4146880;28;20526;-66
2021/09/25 07:22:45;;;;;;;1.13;0.80;;;28.00;99.90;;;;;;4144865;28;20042;-66
2021/09/25 07:24:54;;;;;;;1.15;0.75;;;28.00;99.90;;;;;;4145628;28;20124;-66
2021/09/25 07:26:59;;;;;;;1.45;0.70;;;28.00;99.90;;;;;;4140616;28;20467;-67
2021/09/25 07:29:05;;;;;;;1.88;0.60;;;28.00;99.90;;;;;;4145822;28;20038;-65
2021/09/25 07:31:11;;;;;;;1.40;0.70;;;28.00;99.90;;;;;;4147038;28;20082;-66
2021/09/25 07:33:19;;;;;;;1.25;0.63;;;28.00;99.90;;;;;;4145955;28;20500;-66
2021/09/25 07:35:25;;;;;;;1.23;0.60;;;27.90;99.90;;;;;;4145917;28;20080;-66
2021/09/25 07:37:34;;;;;;;2.15;0.77;;;27.90;99.90;;;;;;4145775;28;20508;-65
2021/09/25 07:39:38;;;;;;;1.75;0.70;;;27.90;99.90;;;;;;4144465;28;20045;-65
2021/09/25 07:41:43;;;;;;;0.90;0.77;;;27.90;99.90;;;;;;4143483;28;20049;-65
2021/09/25 07:43:48;;;;;;;1.02;0.57;;;27.90;99.90;;;;;;4146833;28;20042;-66
2021/09/25 07:45:54;;;;;;;1.85;0.60;;;27.90;99.90;;;;;;4145465;28;20061;-66
2021/09/25 07:47:59;;;;;;;1.40;0.77;;;27.90;99.90;;;;;;4127427;28;20044;-66
2021/09/25 07:50:06;;;;;;;0.82;0.55;;;28.00;99.90;;;;;;4145923;28;20041;-66
2021/09/25 07:52:11;;;;;;;2.40;0.70;;;27.90;99.90;;;;;;4146446;28;20049;-66
2021/09/25 07:54:15;;;;;;;0.85;0.75;;;27.90;99.90;;;;;;4145265;28;20073;-66
2021/09/25 07:56:20;;;;;;;1.30;0.90;;;28.00;99.90;;;;;;4142075;28;20571;-66
2021/09/25 07:58:24;;;;;;;1.60;0.70;;;27.90;99.90;;;;;;4145832;28;20514;-65
2021/09/25 08:00:28;;;;;;;3.90;1.00;;;28.00;99.90;;;;;;4147142;28;20445;-66
2021/09/25 08:02:33;;;;;;;1.13;0.73;;;28.00;99.90;;;;;;4146436;28;20397;-65
2021/09/25 08:04:38;;;;;;;1.20;0.90;;;28.00;99.90;;;;;;4142989;28;20050;-65
2021/09/25 08:06:43;;;;;;;2.72;1.00;;;28.00;99.90;;;;;;4146184;28;20060;-65
2021/09/25 08:08:47;;;;;;;1.95;1.00;;;27.90;99.90;;;;;;4144995;28;20057;-66
2021/09/25 08:10:52;;;;;;;3.88;1.30;;;27.90;99.90;;;;;;4146171;28;20046;-66
2021/09/25 08:12:57;;;;;;;1.33;0.90;;;27.90;99.90;;;;;;4143852;28;20053;-66
2021/09/25 08:15:21;;;;;;;1.30;0.90;;;27.90;99.90;;;;;;4145896;28;20041;-66
2021/09/25 08:17:26;;;;;;;3.83;1.10;;;27.80;99.90;;;;;;4144926;28;20124;-66
2021/09/25 08:19:30;;;;;;;1.88;1.08;;;27.80;99.90;;;;;;4144125;28;20077;-66
2021/09/25 08:21:34;;;;;;;0.90;0.90;;;27.80;99.90;;;;;;4146407;28;20050;-66
2021/09/25 08:23:39;;;;;;;1.45;1.00;;;27.90;99.90;;;;;;4146054;28;20524;-66
2021/09/25 08:25:44;;;;;;;1.13;1.00;;;27.90;99.90;;;;;;4146313;28;20050;-66
2021/09/25 08:27:49;;;;;;;3.38;1.35;;;27.90;99.90;;;;;;4145065;28;20042;-66
2021/09/25 08:29:54;;;;;;;2.40;0.90;;;28.00;99.90;;;;;;4144811;28;20485;-66
2021/09/25 08:31:58;;;;;;;2.40;1.05;;;28.00;99.90;;;;;;4144809;28;20046;-66
2021/09/25 08:34:03;;;;;;;1.77;0.90;;;28.00;99.90;;;;;;4145567;28;20074;-66
2021/09/25 08:36:08;;;;;;;2.90;1.30;;;27.90;99.90;;;;;;4143601;28;20433;-66
2021/09/25 08:38:13;;;;;;;2.50;1.05;;;27.90;99.90;;;;;;4144531;28;20350;-66
2021/09/25 08:40:21;;;;;;;1.92;1.20;;;27.90;99.90;;;;;;4140006;28;20088;-65
2021/09/25 08:42:26;;;;;;;1.73;1.27;;;27.90;99.90;;;;;;4145409;28;20056;-64
2021/09/25 08:44:33;;;;;;;1.50;1.10;;;27.90;99.90;;;;;;4145098;28;20049;-65
2021/09/25 08:46:40;;;;;;;1.60;0.98;;;27.90;99.90;;;;;;4144519;28;20387;-65
2021/09/25 08:48:45;;;;;;;2.03;1.20;;;27.90;99.90;;;;;;4144701;28;20465;-65
2021/09/25 08:50:49;;;;;;;1.40;1.30;;;27.90;99.90;;;;;;4145601;28;20057;-66
2021/09/25 08:52:53;;;;;;;1.83;1.35;;;27.90;99.90;;;;;;4139450;28;20043;-66
2021/09/25 08:54:58;;;;;;;1.50;1.17;;;27.90;99.90;;;;;;4129814;28;20050;-65
2021/09/25 08:57:04;;;;;;;1.60;1.17;;;27.90;99.90;;;;;;4135306;28;20517;-65
2021/09/25 08:59:08;;;;;;;1.58;1.20;;;27.90;99.90;;;;;;4128550;28;20058;-66
2021/09/25 09:01:20;;;;;;;2.85;1.40;;;27.90;99.90;;;;;;4129855;28;20144;-66
2021/09/25 09:03:29;;;;;;;1.58;1.40;;;27.80;99.90;;;;;;4112870;28;20061;-65
2021/09/25 09:05:34;;;;;;;1.60;1.50;;;27.80;99.90;;;;;;4142142;28;20049;-64
2021/09/25 09:07:39;;;;;;;3.25;1.30;;;27.90;99.90;;;;;;4146466;28;20050;-64
2021/09/25 09:09:44;;;;;;;1.88;1.20;;;27.90;99.90;;;;;;4159826;28;20054;-64
2021/09/25 09:11:49;;;;;;;1.88;1.40;;;27.90;99.90;;;;;;4157859;28;20045;-65
2021/09/25 09:13:55;;;;;;;1.58;1.35;;;27.90;99.90;;;;;;4127098;28;20480;-66
2021/09/25 09:16:03;;;;;;;2.17;1.40;;;28.00;99.90;;;;;;4127280;28;20073;-65
2021/09/25 09:18:15;;;;;;;1.60;1.40;;;28.00;99.90;;;;;;4126748;28;20117;-65
2021/09/25 09:20:20;;;;;;;2.25;1.40;;;28.00;99.90;;;;;;4125015;28;20046;-65
2021/09/25 09:22:25;;;;;;;1.75;1.50;;;28.00;99.90;;;;;;4128213;28;20070;-66
2021/09/25 09:24:40;;;;;;;2.00;1.30;;;28.00;99.90;;;;;;4095543;28;20055;-65
2021/09/25 09:26:45;;;;;;;3.35;1.45;;;28.10;99.90;;;;;;4119539;28;20058;-65
2021/09/25 09:28:54;;;;;;;3.30;2.15;;;28.10;99.90;;;;;;4126948;28;20592;-66
2021/09/25 09:31:01;;;;;;;2.50;2.00;;;28.00;99.90;;;;;;4127362;28;20571;-66
2021/09/25 09:33:08;;;;;;;2.63;2.00;;;28.10;99.90;;;;;;4127591;28;20047;-65
2021/09/25 09:35:18;;;;;;;4.35;2.08;;;28.10;99.90;;;;;;4119612;28;20133;-64
2021/09/25 09:37:23;;;;;;;2.35;1.98;;;28.10;99.90;;;;;;4127222;28;20043;-65
2021/09/25 09:39:27;;;;;;;3.75;2.40;;;28.20;99.90;;;;;;4127414;28;20053;-64
2021/09/25 09:41:34;;;;;;;2.63;2.33;;;28.10;99.90;;;;;;4121064;28;20132;-65
2021/09/25 09:43:38;;;;;;;2.10;1.90;;;28.10;99.90;;;;;;4126565;28;20133;-64
2021/09/25 09:45:43;;;;;;;2.95;1.70;;;28.10;99.90;;;;;;4122335;28;20145;-64
2021/09/25 09:47:47;;;;;;;4.15;1.70;;;28.10;99.90;;;;;;4126935;28;20149;-65
2021/09/25 09:49:56;;;;;;;2.60;1.73;;;28.10;99.90;;;;;;4134454;28;20433;-66
2021/09/25 09:52:14;;;;;;;5.30;1.55;;;28.10;99.90;;;;;;4150619;28;20215;-65
2021/09/25 09:54:26;;;;;;;2.35;1.60;;;28.00;99.90;;;;;;4150665;28;20084;-65
2021/09/25 09:56:31;;;;;;;2.50;1.95;;;28.00;99.90;;;;;;4145905;28;20516;-65
2021/09/25 09:58:36;;;;;;;3.00;2.17;;;27.90;99.90;;;;;;4149969;28;20125;-65
2021/09/25 10:00:40;;;;;;;3.30;1.80;;;27.90;99.90;;;;;;4148532;28;20054;-65
2021/09/25 10:02:46;;;;;;;2.35;1.67;;;27.90;99.90;;;;;;4147789;28;20045;-65
2021/09/25 10:04:52;;;;;;;3.80;1.80;;;27.90;99.90;;;;;;4153092;28;20157;-65
2021/09/25 10:06:56;;;;;;;2.88;2.00;;;27.90;99.90;;;;;;4155709;28;20509;-65
2021/09/25 10:09:02;;;;;;;2.25;1.80;;;27.90;99.90;;;;;;4139588;28;20115;-64
2021/09/25 10:11:07;;;;;;;2.60;1.65;;;27.90;99.90;;;;;;4152104;28;20042;-65
2021/09/25 10:13:12;;;;;;;2.17;1.50;;;27.90;99.90;;;;;;4156119;28;20049;-64
2021/09/25 10:15:16;;;;;;;3.08;1.60;;;27.90;99.90;;;;;;4139790;28;20046;-65
2021/09/25 10:17:21;;;;;;;3.33;1.70;;;27.90;99.90;;;;;;4127542;28;20042;-65
2021/09/25 10:19:30;;;;;;;2.10;1.75;;;27.90;99.90;;;;;;4135028;28;20485;-64
2021/09/25 10:21:36;;;;;;;3.40;1.95;;;27.90;99.90;;;;;;4137894;28;20046;-65
2021/09/25 10:23:45;;;;;;;2.60;1.80;;;27.90;99.90;;;;;;4139379;28;20070;-64
2021/09/25 10:25:49;;;;;;;3.08;2.00;;;27.90;99.90;;;;;;4132199;28;20052;-65
2021/09/25 10:27:57;;;;;;;1.90;1.80;;;27.90;99.90;;;;;;4131364;28;20133;-65
2021/09/25 10:30:04;;;;;;;1.95;1.70;;;27.90;99.90;;;;;;4136852;28;20386;-66
2021/09/25 10:32:20;;;;;;;2.60;1.50;;;27.90;99.90;;;;;;4137138;28;20073;-66
2021/09/25 10:34:28;;;;;;;1.67;1.58;;;27.90;99.90;;;;;;4121063;28;20482;-66
2021/09/25 10:36:40;;;;;;;2.08;1.40;;;27.80;99.90;;;;;;4136077;28;20403;-65
2021/09/25 10:38:45;;;;;;;2.63;1.83;;;27.80;99.90;;;;;;4136670;28;20038;-67
2021/09/25 10:41:18;;;;;;;5.32;2.10;;;27.80;99.90;;;;;;4134201;28;20080;-64
2021/09/25 10:43:28;;;;;;;2.33;1.80;;;27.80;99.90;;;;;;4126078;28;20041;-65
2021/09/25 10:45:33;;;;;;;2.80;1.73;;;27.80;99.90;;;;;;4136906;28;20133;-64
2021/09/25 10:47:38;;;;;;;3.85;1.70;;;27.80;99.90;;;;;;4156259;28;20107;-65
2021/09/25 10:49:48;;;;;;;2.10;1.70;;;27.80;99.90;;;;;;4157989;28;20095;-67
2021/09/25 10:51:53;;;;;;;3.08;1.40;;;27.80;99.90;;;;;;4127992;28;20050;-65